Time;durP1;ratioP1;P1;durP2;ratioP2;P2;SDS_P1;SDS_P2;PMS_P1;PMS_P2;Temp;Humidity;BMP_temperature;BMP_pressure;BME280_temperature;BME280_humidity;BME280_pressure;Samples;Min_cycle;Max_cycle;Signal;HPM_P1;HPM_P2
2021/03/16 00:02:01;;;;;;;73.37;25.90;;;;;;;-2.11;71.26;98105.97;2161231;82;21277;-67
2021/03/16 00:05:02;;;;;;;80.85;33.10;;;;;;;-2.07;71.41;98104.61;2161225;82;21745;-66
2021/03/16 00:08:04;;;;;;;85.25;34.73;;;;;;;-2.00;71.57;98106.17;2161067;82;21598;-66
2021/03/16 00:11:06;;;;;;;92.55;34.65;;;;;;;-1.85;71.12;98112.27;2161145;82;21179;-69
2021/03/16 00:14:08;;;;;;;86.15;31.20;;;;;;;-1.81;70.79;98110.46;2161082;82;21606;-66
2021/03/16 00:17:11;;;;;;;73.40;28.23;;;;;;;-1.76;70.80;98113.34;2161081;82;21586;-67
2021/03/16 00:20:13;;;;;;;80.17;29.98;;;;;;;-1.73;70.75;98114.16;2161102;82;21135;-66
2021/03/16 00:23:15;;;;;;;84.77;30.80;;;;;;;-1.66;71.01;98114.42;2164171;81;21178;-67
2021/03/16 00:26:17;;;;;;;81.63;31.02;;;;;;;-1.57;71.10;98120.63;2171205;82;21301;-69
2021/03/16 00:29:19;;;;;;;75.42;30.05;;;;;;;-1.53;70.93;98122.25;2171576;82;21285;-66
2021/03/16 00:32:21;;;;;;;80.87;32.17;;;;;;;-1.48;70.89;98119.56;2141630;82;21127;-69
2021/03/16 00:35:23;;;;;;;72.00;28.90;;;;;;;-1.51;70.98;98119.64;2171277;82;21294;-67
2021/03/16 00:38:25;;;;;;;60.38;24.27;;;;;;;-1.56;70.60;98121.05;2171188;82;21583;-67
2021/03/16 00:41:27;;;;;;;63.58;25.20;;;;;;;-1.62;70.35;98119.46;2171352;82;21582;-68
2021/03/16 00:44:29;;;;;;;57.58;24.00;;;;;;;-1.65;70.73;98118.67;2171340;82;21277;-67
2021/03/16 00:47:32;;;;;;;66.45;24.47;;;;;;;-1.65;70.68;98122.52;2171040;82;21729;-70
2021/03/16 00:50:34;;;;;;;63.60;24.70;;;;;;;-1.75;71.06;98121.91;2171234;82;21288;-70
2021/03/16 00:53:36;;;;;;;59.65;22.77;;;;;;;-1.83;70.72;98120.78;2171223;82;21277;-70
2021/03/16 00:56:38;;;;;;;73.02;29.77;;;;;;;-1.84;70.96;98116.54;2171477;82;21324;-70
2021/03/16 00:59:40;;;;;;;73.25;28.25;;;;;;;-1.89;71.22;98118.80;2171559;82;21289;-70
2021/03/16 01:02:41;;;;;;;68.52;27.00;;;;;;;-1.95;71.35;98112.07;2171244;82;21130;-70
2021/03/16 01:05:43;;;;;;;71.33;27.30;;;;;;;-1.96;71.50;98115.52;2171259;82;21290;-69
2021/03/16 01:08:45;;;;;;;80.53;29.87;;;;;;;-1.97;71.72;98113.39;2171163;82;21587;-66
2021/03/16 01:11:47;;;;;;;73.28;28.95;;;;;;;-1.94;71.25;98115.02;2171176;82;21296;-66
2021/03/16 01:14:50;;;;;;;73.75;28.80;;;;;;;-1.96;71.94;98114.23;2171315;82;21147;-65
2021/03/16 01:17:52;;;;;;;69.47;27.48;;;;;;;-2.11;71.61;98110.27;2171225;82;21293;-67
2021/03/16 01:20:54;;;;;;;70.87;29.80;;;;;;;-2.05;71.35;98107.56;2171196;82;21717;-65
2021/03/16 01:23:55;;;;;;;74.47;27.70;;;;;;;-2.03;71.12;98105.80;2166553;81;21308;-65
2021/03/16 01:26:57;;;;;;;73.25;29.30;;;;;;;-2.04;71.03;98108.40;2161015;82;21175;-66
2021/03/16 01:29:59;;;;;;;72.97;30.68;;;;;;;-2.13;71.00;98105.59;2161074;82;21142;-66
2021/03/16 01:33:01;;;;;;;81.75;34.58;;;;;;;-2.22;71.05;98104.52;2161008;82;21151;-66
2021/03/16 01:36:04;;;;;;;86.40;34.08;;;;;;;-2.26;71.27;98110.14;2161061;82;21586;-65
2021/03/16 01:39:06;;;;;;;83.35;35.52;;;;;;;-2.32;71.28;98111.11;2161055;82;21547;-65
2021/03/16 01:42:08;;;;;;;88.95;38.17;;;;;;;-2.35;71.14;98112.91;2161409;82;21291;-65
2021/03/16 01:45:09;;;;;;;77.75;36.17;;;;;;;-2.36;71.16;98113.78;2161300;82;21272;-65
2021/03/16 01:48:12;;;;;;;82.85;31.55;;;;;;;-2.34;71.36;98113.30;2161356;82;21301;-67
2021/03/16 01:51:14;;;;;;;75.47;32.20;;;;;;;-2.39;71.27;98112.11;2161394;82;21269;-66
2021/03/16 01:54:16;;;;;;;80.95;31.85;;;;;;;-2.37;71.30;98118.08;2161485;82;21313;-67
2021/03/16 01:57:18;;;;;;;74.03;30.32;;;;;;;-2.35;71.44;98112.91;2161673;82;21126;-67
2021/03/16 02:00:20;;;;;;;72.47;30.82;;;;;;;-2.37;71.38;98111.66;2161662;82;21301;-66
2021/03/16 02:03:22;;;;;;;83.87;33.00;;;;;;;-2.45;71.48;98113.08;2140622;82;21241;-67
2021/03/16 02:06:25;;;;;;;81.08;32.93;;;;;;;-2.47;71.42;98117.41;2161281;82;21559;-67
2021/03/16 02:09:27;;;;;;;73.05;33.08;;;;;;;-2.60;71.29;98117.25;2161444;82;21269;-67
2021/03/16 02:12:29;;;;;;;72.85;31.35;;;;;;;-2.64;71.39;98119.47;2161722;82;21130;-69
2021/03/16 02:15:31;;;;;;;74.62;29.92;;;;;;;-2.71;71.59;98125.59;2161354;82;21288;-69
2021/03/16 02:18:33;;;;;;;69.90;28.50;;;;;;;-2.73;71.63;98124.34;2161336;82;21599;-70
2021/03/16 02:21:35;;;;;;;67.15;25.40;;;;;;;-2.77;72.21;98131.69;2161380;82;21293;-70
2021/03/16 02:24:38;;;;;;;91.97;35.48;;;;;;;-2.94;73.26;98138.81;2171543;81;21328;-70
2021/03/16 02:27:40;;;;;;;89.95;32.50;;;;;;;-3.18;73.08;98132.80;2178696;82;21293;-68
2021/03/16 02:30:42;;;;;;;77.80;29.35;;;;;;;-3.18;73.53;98144.34;2151056;82;21277;-69
2021/03/16 02:33:44;;;;;;;82.47;31.45;;;;;;;-3.19;73.63;98132.83;2178794;81;21257;-69
2021/03/16 02:36:46;;;;;;;78.42;30.32;;;;;;;-3.05;73.43;98130.88;2178862;81;21126;-69
2021/03/16 02:39:48;;;;;;;69.17;28.98;;;;;;;-2.83;72.96;98131.36;2178781;81;21728;-69
2021/03/16 02:42:50;;;;;;;73.52;30.05;;;;;;;-2.79;72.46;98124.02;2178758;81;21709;-68
2021/03/16 02:45:52;;;;;;;71.62;27.62;;;;;;;-2.81;72.21;98127.48;2178718;81;21726;-68
2021/03/16 02:48:54;;;;;;;66.28;28.75;;;;;;;-2.81;72.30;98138.58;2178738;81;21732;-66
2021/03/16 02:51:56;;;;;;;71.17;27.10;;;;;;;-2.88;72.33;98137.00;2178919;81;21272;-67
2021/03/16 02:54:57;;;;;;;71.00;30.25;;;;;;;-2.88;72.21;98129.74;2178718;81;21308;-66
2021/03/16 02:58:00;;;;;;;64.97;28.73;;;;;;;-2.88;72.45;98128.46;2178702;81;21309;-66
2021/03/16 03:01:02;;;;;;;81.10;31.25;;;;;;;-2.90;72.25;98132.76;2178474;81;21261;-67
2021/03/16 03:04:05;;;;;;;90.35;32.20;;;;;;;-2.82;72.78;98139.89;2178617;81;21610;-68
2021/03/16 03:07:07;;;;;;;74.90;29.67;;;;;;;-2.63;72.68;98139.98;2178540;81;21778;-66
2021/03/16 03:10:09;;;;;;;75.72;28.92;;;;;;;-2.72;71.78;98135.00;2178603;81;21288;-67
2021/03/16 03:13:11;;;;;;;78.35;30.92;;;;;;;-2.86;71.37;98144.25;2178609;81;21320;-66
2021/03/16 03:16:13;;;;;;;75.83;31.37;;;;;;;-2.98;71.63;98134.19;2178588;81;21760;-68
2021/03/16 03:19:15;;;;;;;86.30;34.55;;;;;;;-3.03;71.83;98143.67;2178733;81;21725;-66
2021/03/16 03:22:17;;;;;;;89.07;36.08;;;;;;;-3.03;71.79;98140.69;2178599;81;21697;-67
2021/03/16 03:25:19;;;;;;;86.90;34.60;;;;;;;-3.09;72.24;98147.19;2166008;81;21694;-66
2021/03/16 03:28:21;;;;;;;74.77;30.70;;;;;;;-3.06;72.19;98148.45;2161256;82;21301;-66
2021/03/16 03:31:23;;;;;;;66.62;27.37;;;;;;;-3.00;72.11;98146.22;2161186;82;21147;-66
2021/03/16 03:34:25;;;;;;;69.25;30.20;;;;;;;-3.03;71.82;98151.38;2161154;82;21588;-66
2021/03/16 03:37:27;;;;;;;72.60;30.72;;;;;;;-3.03;71.85;98150.09;2161130;82;21681;-66
2021/03/16 03:40:29;;;;;;;72.75;31.17;;;;;;;-3.08;71.74;98147.61;2161276;82;21776;-66
2021/03/16 03:43:31;;;;;;;76.53;31.62;;;;;;;-3.08;71.94;98152.73;2161130;82;21540;-66
2021/03/16 03:46:33;;;;;;;67.25;29.27;;;;;;;-3.10;71.84;98159.62;2161164;82;21729;-66
2021/03/16 03:49:35;;;;;;;73.33;30.60;;;;;;;-3.09;71.96;98163.03;2161166;82;21615;-66
2021/03/16 03:52:37;;;;;;;78.70;31.50;;;;;;;-3.14;72.30;98163.11;2161197;82;21753;-66
2021/03/16 03:55:39;;;;;;;72.72;29.02;;;;;;;-3.22;72.13;98169.66;2161213;82;21705;-65
2021/03/16 03:58:41;;;;;;;74.45;28.40;;;;;;;-3.26;72.19;98166.73;2161243;82;21285;-68
2021/03/16 04:01:43;;;;;;;69.72;29.92;;;;;;;-3.18;72.23;98170.44;2161145;82;21159;-65
2021/03/16 04:04:45;;;;;;;75.92;30.70;;;;;;;-3.08;72.46;98170.70;2161152;82;21170;-66
2021/03/16 04:07:47;;;;;;;73.60;30.17;;;;;;;-2.99;72.26;98173.55;2161293;82;21340;-66
2021/03/16 04:10:49;;;;;;;72.03;29.32;;;;;;;-2.91;71.89;98169.59;2161454;82;21282;-65
2021/03/16 04:13:51;;;;;;;79.85;30.15;;;;;;;-2.96;71.94;98176.92;2161139;82;21111;-65
2021/03/16 04:16:53;;;;;;;108.37;40.70;;;;;;;-3.07;71.76;98180.55;2161215;82;21265;-65
2021/03/16 04:19:55;;;;;;;100.55;35.68;;;;;;;-3.29;72.21;98175.73;2161367;82;21294;-65
2021/03/16 04:22:57;;;;;;;91.37;35.73;;;;;;;-3.23;72.15;98173.50;2161386;82;21301;-65
2021/03/16 04:25:59;;;;;;;84.47;33.13;;;;;;;-3.21;72.06;98179.47;2161324;81;21187;-68
2021/03/16 04:29:01;;;;;;;81.82;34.25;;;;;;;-3.23;71.81;98179.50;2161132;82;21096;-66
2021/03/16 04:32:03;;;;;;;76.02;30.00;;;;;;;-3.34;72.45;98187.80;2161118;82;21179;-67
2021/03/16 04:35:05;;;;;;;77.60;32.50;;;;;;;-3.26;72.44;98190.23;2161125;82;21135;-66
2021/03/16 04:38:07;;;;;;;88.95;35.08;;;;;;;-3.28;72.34;98188.97;2161066;82;21156;-68
2021/03/16 04:41:09;;;;;;;82.20;32.58;;;;;;;-3.41;72.70;98189.59;2161096;82;21092;-66
2021/03/16 04:44:11;;;;;;;80.72;31.17;;;;;;;-3.44;72.96;98195.22;2161089;82;21123;-65
2021/03/16 04:47:13;;;;;;;80.87;32.05;;;;;;;-3.40;72.90;98191.30;2161008;82;21143;-65
2021/03/16 04:50:15;;;;;;;83.22;34.92;;;;;;;-3.34;72.71;98189.91;2161095;82;21103;-65
2021/03/16 04:53:17;;;;;;;84.20;32.20;;;;;;;-3.30;72.61;98192.02;2161189;82;21286;-65
2021/03/16 04:56:20;;;;;;;87.97;33.40;;;;;;;-3.31;72.39;98192.42;2140090;82;21266;-65
2021/03/16 04:59:21;;;;;;;95.45;35.85;;;;;;;-3.35;72.36;98193.38;2161070;82;21135;-65
2021/03/16 05:02:23;;;;;;;97.55;35.33;;;;;;;-3.33;72.14;98190.78;2161094;82;21158;-65
2021/03/16 05:05:25;;;;;;;96.97;36.55;;;;;;;-3.29;72.23;98190.28;2161191;82;21150;-66
2021/03/16 05:08:27;;;;;;;118.45;41.70;;;;;;;-3.31;72.02;98193.71;2161022;82;21182;-66
2021/03/16 05:11:30;;;;;;;112.05;42.10;;;;;;;-3.24;72.49;98189.79;2161060;82;21151;-65
2021/03/16 05:14:32;;;;;;;115.72;43.00;;;;;;;-3.18;72.30;98194.81;2160902;82;21571;-65
2021/03/16 05:17:34;;;;;;;111.50;41.63;;;;;;;-3.16;72.35;98192.64;2140169;82;21249;-65
2021/03/16 05:20:36;;;;;;;110.17;40.88;;;;;;;-3.20;72.17;98187.14;2161014;82;21139;-66
2021/03/16 05:23:38;;;;;;;101.30;39.50;;;;;;;-3.24;72.15;98188.51;2161393;82;21297;-65
2021/03/16 05:26:40;;;;;;;90.92;37.10;;;;;;;-3.21;72.09;98193.14;2177504;81;21309;-66
2021/03/16 05:29:42;;;;;;;92.70;36.60;;;;;;;-3.20;72.17;98194.84;2178504;82;21277;-66
2021/03/16 05:32:45;;;;;;;93.17;37.13;;;;;;;-3.10;72.27;98200.68;2178504;82;21273;-65
2021/03/16 05:35:47;;;;;;;98.42;39.90;;;;;;;-3.03;72.20;98198.42;2178462;81;21289;-65
2021/03/16 05:38:49;;;;;;;93.22;36.50;;;;;;;-2.96;72.27;98201.72;2178484;81;21269;-66
2021/03/16 05:41:50;;;;;;;99.65;39.90;;;;;;;-2.90;72.02;98199.48;2178444;81;21296;-65
2021/03/16 05:44:52;;;;;;;97.27;37.45;;;;;;;-2.91;72.00;98196.09;2178443;81;21593;-66
2021/03/16 05:47:54;;;;;;;111.15;43.38;;;;;;;-2.80;72.19;98204.91;2178639;81;21740;-68
2021/03/16 05:50:57;;;;;;;118.47;45.63;;;;;;;-2.69;72.09;98211.95;2150905;82;21138;-65
2021/03/16 05:53:59;;;;;;;99.10;40.80;;;;;;;-2.60;71.82;98212.27;2178588;81;21269;-67
2021/03/16 05:57:01;;;;;;;109.72;46.75;;;;;;;-2.51;71.85;98218.95;2178459;81;21253;-65
2021/03/16 06:00:03;;;;;;;119.72;48.28;;;;;;;-2.36;71.83;98226.36;2178458;81;21284;-66
2021/03/16 06:03:05;;;;;;;116.70;46.88;;;;;;;-2.12;72.34;98218.63;2150608;82;21305;-66
2021/03/16 06:06:07;;;;;;;128.78;50.65;;;;;;;-1.79;72.21;98224.42;2178406;81;21288;-66
2021/03/16 06:09:09;;;;;;;132.75;52.43;;;;;;;-1.48;71.80;98231.05;2178656;81;21289;-66
2021/03/16 06:12:11;;;;;;;157.00;64.92;;;;;;;-1.21;71.89;98228.72;2178438;81;21717;-67
2021/03/16 06:15:13;;;;;;;154.10;58.65;;;;;;;-0.87;71.94;98232.63;2178461;81;21742;-66
2021/03/16 06:18:15;;;;;;;156.52;57.25;;;;;;;-0.44;71.73;98232.45;2178442;81;21716;-66
2021/03/16 06:21:17;;;;;;;160.65;63.40;;;;;;;0.00;71.43;98234.30;2178474;81;21304;-67
2021/03/16 06:24:19;;;;;;;160.22;61.40;;;;;;;0.37;70.51;98234.97;2178398;81;21296;-67
2021/03/16 06:27:21;;;;;;;178.90;77.45;;;;;;;0.51;70.14;98232.37;2178407;81;21292;-70
2021/03/16 06:30:23;;;;;;;169.30;69.77;;;;;;;0.44;70.13;98242.48;2178536;81;21276;-67
2021/03/16 06:33:26;;;;;;;162.72;70.37;;;;;;;0.48;70.44;98241.50;2178599;81;21284;-68
2021/03/16 06:36:28;;;;;;;165.15;68.17;;;;;;;0.65;70.58;98246.17;2178512;81;21729;-69
2021/03/16 06:39:30;;;;;;;165.57;63.85;;;;;;;0.76;70.53;98248.86;2150935;82;21754;-66
2021/03/16 06:42:33;;;;;;;164.20;74.58;;;;;;;0.72;70.32;98258.88;2178619;81;21705;-67
2021/03/16 06:45:35;;;;;;;178.42;74.03;;;;;;;0.50;70.43;98261.67;2178608;81;21332;-67
2021/03/16 06:48:37;;;;;;;;;;;;;;;0.54;71.10;98259.00;2181057;81;21753;-67
2021/03/16 06:51:39;;;;;;;195.28;81.85;;;;;;;0.70;70.82;98255.05;2178469;82;20228;-67
2021/03/16 06:54:41;;;;;;;177.53;74.22;;;;;;;0.68;70.71;98262.84;2178575;81;21281;-67
2021/03/16 06:57:45;;;;;;;157.00;66.82;;;;;;;0.62;70.99;98269.50;2178565;81;21281;-67
2021/03/16 07:00:47;;;;;;;158.20;69.15;;;;;;;0.63;71.21;98272.91;2178392;81;21289;-67
2021/03/16 07:03:50;;;;;;;170.72;71.62;;;;;;;0.83;71.57;98272.31;2178597;81;21269;-67
2021/03/16 07:06:56;;;;;;;159.87;68.20;;;;;;;1.24;71.23;98275.36;2178422;81;21312;-68
2021/03/16 07:10:02;;;;;;;159.50;66.80;;;;;;;1.40;71.23;98281.33;2178842;82;21530;-70
2021/03/16 07:13:07;;;;;;;159.00;68.52;;;;;;;1.66;71.29;98280.00;2178489;81;21261;-67
2021/03/16 07:16:09;;;;;;;;;;;;;;;1.93;71.09;98283.02;2181024;81;21285;-67
2021/03/16 07:19:15;;;;;;;142.10;65.03;;;;;;;2.17;71.23;98276.98;2178867;82;20250;-67
2021/03/16 07:22:19;;;;;;;134.18;61.45;;;;;;;2.45;70.74;98286.33;2178458;81;21581;-66
2021/03/16 07:25:22;;;;;;;;;;;;;;;2.41;70.43;98281.72;2156425;81;21272;-67
2021/03/16 07:28:25;;;;;;;118.90;56.28;;;;;;;2.38;70.51;98288.28;2188269;81;20512;-66
2021/03/16 07:31:30;;;;;;;;;;;;;;;2.33;70.52;98283.73;2190721;81;21749;-67
2021/03/16 07:34:32;;;;;;;112.12;50.88;;;;;;;2.41;70.88;98289.49;2188343;81;20141;-67
2021/03/16 07:37:35;;;;;;;109.72;52.08;;;;;;;2.61;71.12;98293.08;2188317;81;21720;-67
2021/03/16 07:40:37;;;;;;;118.10;54.70;;;;;;;2.89;70.76;98290.76;2188304;81;21142;-68
2021/03/16 07:43:40;;;;;;;113.72;56.13;;;;;;;3.15;71.44;98294.05;2188540;81;21713;-67
2021/03/16 07:46:42;;;;;;;114.95;55.03;;;;;;;3.42;71.19;98300.76;2188223;81;21308;-67
2021/03/16 07:49:44;;;;;;;122.65;56.20;;;;;;;3.62;70.13;98308.16;2160016;81;21130;-68
2021/03/16 07:52:46;;;;;;;106.75;54.45;;;;;;;3.97;69.66;98312.36;2188460;81;21320;-67
2021/03/16 07:55:53;;;;;;;99.47;49.33;;;;;;;4.00;69.51;98314.82;2187995;81;21704;-67
2021/03/16 07:58:55;;;;;;;97.42;48.08;;;;;;;4.00;69.08;98312.22;2188302;81;21313;-67
2021/03/16 08:02:00;;;;;;;97.27;47.70;;;;;;;3.80;69.79;98320.38;2188057;81;21284;-67
2021/03/16 08:05:02;;;;;;;105.75;50.73;;;;;;;3.68;70.62;98319.61;2188202;81;21704;-68
2021/03/16 08:08:04;;;;;;;;;;;;;;;3.64;70.92;98326.66;2190634;81;21277;-69
2021/03/16 08:11:07;;;;;;;97.07;48.53;;;;;;;3.57;70.97;98320.49;2188780;81;20236;-67
2021/03/16 08:14:11;;;;;;;97.97;49.83;;;;;;;3.69;70.69;98319.97;2188384;81;21292;-68
2021/03/16 08:17:13;;;;;;;97.92;48.08;;;;;;;3.78;70.92;98319.61;2188402;81;21700;-68
2021/03/16 08:20:15;;;;;;;99.45;48.87;;;;;;;4.14;70.84;98317.67;2188193;81;21292;-71
2021/03/16 08:23:21;;;;;;;99.00;49.80;;;;;;;4.38;71.11;98315.37;2187995;81;21716;-70
2021/03/16 08:26:24;;;;;;;97.47;48.45;;;;;;;4.41;68.87;98316.09;2171941;81;21257;-70
2021/03/16 08:29:26;;;;;;;94.32;47.95;;;;;;;4.32;69.41;98327.73;2161423;82;21300;-67
2021/03/16 08:32:28;;;;;;;97.08;47.60;;;;;;;4.18;68.77;98327.91;2161092;82;21143;-68
2021/03/16 08:35:30;;;;;;;95.30;48.40;;;;;;;4.10;69.62;98318.70;2161066;82;21179;-68
2021/03/16 08:38:33;;;;;;;102.40;50.40;;;;;;;4.42;69.38;98331.20;2161096;82;21131;-67
2021/03/16 08:41:35;;;;;;;99.13;49.90;;;;;;;4.75;69.79;98322.83;2161124;82;21131;-68
2021/03/16 08:44:37;;;;;;;96.02;48.68;;;;;;;4.85;67.23;98324.09;2161448;82;21285;-68
2021/03/16 08:47:39;;;;;;;94.40;47.23;;;;;;;4.68;68.72;98327.02;2161490;82;21300;-68
2021/03/16 08:51:41;;;;;;;99.22;50.80;;;;;;;4.48;68.33;98324.00;2285379;77;22219;-70
2021/03/16 08:54:42;;;;;;;99.45;49.93;;;;;;;4.35;68.91;98330.62;2296343;77;21284;-70
2021/03/16 08:57:43;;;;;;;95.90;49.18;;;;;;;4.25;68.80;98330.20;2294771;77;21126;-70
2021/03/16 09:00:45;;;;;;;99.77;52.03;;;;;;;4.08;69.32;98334.81;2297513;77;21129;-69
2021/03/16 09:03:46;;;;;;;99.28;52.43;;;;;;;4.02;69.21;98338.11;2287399;77;21300;-70
2021/03/16 09:06:47;;;;;;;105.83;49.83;;;;;;;3.93;69.48;98341.94;2251280;76;21602;-70
2021/03/16 09:09:48;;;;;;;106.40;53.13;;;;;;;3.90;69.80;98345.95;2221233;80;21202;-70
2021/03/16 09:12:49;;;;;;;101.10;53.48;;;;;;;3.97;69.88;98345.63;2220767;80;21191;-70
2021/03/16 09:15:50;;;;;;;97.10;48.70;;;;;;;4.21;69.68;98336.43;2189842;80;21703;-70
2021/03/16 09:18:51;;;;;;;95.65;50.73;;;;;;;4.44;68.99;98338.03;2220396;80;21177;-70
2021/03/16 09:21:52;;;;;;;108.15;55.12;;;;;;;4.60;69.09;98337.36;2218979;80;21281;-70
2021/03/16 09:24:54;;;;;;;105.30;55.10;;;;;;;4.92;70.04;98333.76;2219113;80;21276;-70
2021/03/16 09:28:00;;;;;;;95.12;51.00;;;;;;;5.23;69.78;98339.69;2220383;80;21142;-70
2021/03/16 09:30:59;;;;;;;90.55;46.55;;;;;;;5.57;69.25;98339.36;2218229;80;21257;-70
2021/03/16 09:34:00;;;;;;;83.82;45.90;;;;;;;5.92;67.57;98339.84;2221264;80;21636;-70
2021/03/16 09:37:01;;;;;;;80.32;42.70;;;;;;;6.09;65.73;98337.27;2222241;80;21163;-70
2021/03/16 09:40:02;;;;;;;78.78;40.35;;;;;;;6.38;65.26;98335.80;2222255;80;21158;-70
2021/03/16 09:43:03;;;;;;;79.87;43.75;;;;;;;6.59;65.20;98332.55;2220461;80;21600;-70
2021/03/16 09:46:04;;;;;;;77.08;39.73;;;;;;;6.81;65.06;98339.23;2219327;80;21288;-70
2021/03/16 09:49:05;;;;;;;71.10;36.15;;;;;;;7.20;63.94;98334.55;2217536;80;21159;-70
2021/03/16 09:52:06;;;;;;;69.35;35.70;;;;;;;7.50;62.16;98344.19;2220747;80;21154;-70
2021/03/16 09:55:08;;;;;;;65.25;35.40;;;;;;;7.54;60.75;98343.95;2218808;80;21280;-70
2021/03/16 09:58:09;;;;;;;64.17;36.53;;;;;;;7.71;62.44;98346.05;2216758;80;21751;-70
2021/03/16 10:01:10;;;;;;;70.90;38.00;;;;;;;7.84;60.04;98344.41;2221779;80;21169;-68
2021/03/16 10:04:11;;;;;;;66.10;32.88;;;;;;;7.89;62.18;98343.70;2221046;80;21740;-67
2021/03/16 10:07:12;;;;;;;58.30;30.75;;;;;;;8.08;61.04;98343.47;2223335;80;21289;-67
2021/03/16 10:10:13;;;;;;;61.00;31.17;;;;;;;8.13;59.84;98337.52;2221408;80;21295;-68
2021/03/16 10:13:15;;;;;;;60.20;31.60;;;;;;;8.23;60.48;98338.27;2220795;80;21268;-68
2021/03/16 10:16:16;;;;;;;59.03;31.60;;;;;;;8.33;61.12;98338.95;2218527;80;21202;-68
2021/03/16 10:19:17;;;;;;;59.20;31.42;;;;;;;8.65;59.89;98338.81;2217110;80;21560;-68
2021/03/16 10:22:18;;;;;;;60.63;31.87;;;;;;;8.89;58.83;98342.15;2220288;80;21165;-68
2021/03/16 10:25:21;;;;;;;51.75;27.93;;;;;;;9.15;60.28;98339.69;2219058;80;21318;-68
2021/03/16 10:28:22;;;;;;;54.88;28.38;;;;;;;9.58;58.92;98335.64;2220547;80;21269;-67
2021/03/16 10:31:23;;;;;;;53.63;29.23;;;;;;;9.89;56.95;98337.58;2218925;80;21182;-68
2021/03/16 10:34:24;;;;;;;55.58;29.72;;;;;;;9.65;56.10;98342.64;2220741;80;21273;-68
2021/03/16 10:37:25;;;;;;;58.68;30.70;;;;;;;9.29;57.11;98337.03;2219027;80;21309;-67
2021/03/16 10:40:27;;;;;;;54.03;29.55;;;;;;;9.09;57.16;98336.98;2219452;80;21292;-68
2021/03/16 10:43:28;;;;;;;50.73;26.65;;;;;;;9.03;56.00;98338.69;2219890;80;21127;-67
2021/03/16 10:46:29;;;;;;;50.10;27.35;;;;;;;8.59;54.01;98339.64;2220028;80;21285;-68
2021/03/16 10:49:32;;;;;;;53.38;27.37;;;;;;;8.29;57.47;98336.62;2221869;80;21606;-69
2021/03/16 10:52:33;;;;;;;54.77;29.50;;;;;;;8.21;56.50;98340.14;2221257;80;21581;-68
2021/03/16 10:55:34;;;;;;;54.05;29.23;;;;;;;8.46;56.74;98340.40;2218436;80;21130;-68
2021/03/16 10:58:35;;;;;;;53.92;28.17;;;;;;;8.68;58.39;98335.18;2216729;79;21667;-68
2021/03/16 11:01:39;;;;;;;46.37;26.02;;;;;;;8.98;57.25;98328.52;2223598;80;21161;-69
2021/03/16 11:04:41;;;;;;;47.43;23.57;;;;;;;9.15;55.60;98331.84;2217644;80;21162;-69
2021/03/16 11:07:45;;;;;;;47.37;24.63;;;;;;;9.22;55.83;98327.90;2194786;78;21134;-71
2021/03/16 11:10:47;;;;;;;49.40;25.30;;;;;;;9.32;54.29;98330.78;2202576;79;21299;-71
2021/03/16 11:13:49;;;;;;;43.30;23.27;;;;;;;9.51;55.42;98331.73;2165605;80;21276;-71
2021/03/16 11:16:52;;;;;;;64.45;34.73;;;;;;;9.79;55.01;98329.96;2186513;80;21303;-71
2021/03/16 11:19:53;;;;;;;67.62;37.67;;;;;;;9.86;54.57;98336.00;2186827;80;21165;-71
2021/03/16 11:22:54;;;;;;;47.10;24.50;;;;;;;9.75;56.73;98321.94;2165813;80;21292;-71
2021/03/16 11:25:55;;;;;;;43.45;22.95;;;;;;;9.64;53.82;98330.03;2208752;80;21280;-71
2021/03/16 11:28:56;;;;;;;45.20;23.67;;;;;;;9.52;54.89;98326.88;2201648;80;21280;-71
2021/03/16 11:31:57;;;;;;;44.50;23.83;;;;;;;9.41;53.35;98328.04;2195119;80;21312;-71
2021/03/16 11:34:58;;;;;;;59.05;33.28;;;;;;;9.12;54.07;98335.52;2184458;80;21158;-71
2021/03/16 11:38:00;;;;;;;57.95;31.97;;;;;;;8.59;56.36;98340.95;2184907;80;21154;-71
2021/03/16 11:41:00;;;;;;;59.85;33.00;;;;;;;8.07;56.42;98330.02;2183602;80;21308;-71
2021/03/16 11:44:02;;;;;;;54.13;29.75;;;;;;;7.76;57.64;98330.98;2197472;79;21299;-71
2021/03/16 11:47:03;;;;;;;51.50;27.70;;;;;;;7.48;58.48;98340.84;2205438;80;21161;-72
2021/03/16 11:50:04;;;;;;;55.17;28.95;;;;;;;7.16;59.48;98340.37;2194149;80;21303;-71
2021/03/16 11:53:05;;;;;;;52.73;28.40;;;;;;;6.92;61.14;98346.02;2188560;80;21634;-71
2021/03/16 11:56:06;;;;;;;50.12;24.65;;;;;;;6.63;63.64;98354.06;2189944;80;21173;-71
2021/03/16 11:59:08;;;;;;;46.37;22.55;;;;;;;6.38;65.02;98348.83;2202887;80;21303;-71
2021/03/16 12:02:09;;;;;;;46.23;23.32;;;;;;;6.26;65.14;98346.01;2193696;80;21285;-71
2021/03/16 12:05:10;;;;;;;41.20;21.23;;;;;;;6.25;65.90;98343.88;2207007;79;21169;-72
2021/03/16 12:08:12;;;;;;;43.95;22.00;;;;;;;6.31;65.86;98344.02;2203007;80;21272;-72
2021/03/16 12:11:14;;;;;;;49.90;24.85;;;;;;;6.36;65.86;98346.74;2200689;80;21154;-71
2021/03/16 12:14:15;;;;;;;42.50;21.40;;;;;;;6.49;64.98;98345.65;2171025;80;21770;-71
2021/03/16 12:17:16;;;;;;;42.13;21.85;;;;;;;6.58;64.57;98332.16;2192357;80;21727;-71
2021/03/16 12:20:17;;;;;;;44.20;23.12;;;;;;;6.63;64.41;98333.69;2192136;80;21181;-71
2021/03/16 12:23:19;;;;;;;44.35;22.87;;;;;;;6.70;64.06;98327.22;2201783;80;21297;-72
2021/03/16 12:26:20;;;;;;;49.27;26.57;;;;;;;6.85;64.25;98325.55;2191736;80;21295;-71
2021/03/16 12:29:21;;;;;;;45.25;22.17;;;;;;;7.03;62.77;98328.95;2182456;80;21739;-71
2021/03/16 12:32:22;;;;;;;46.98;25.05;;;;;;;7.24;62.27;98322.99;2179870;80;21703;-71
2021/03/16 12:35:23;;;;;;;43.98;23.52;;;;;;;7.33;61.94;98315.14;2201373;79;21162;-71
2021/03/16 12:38:24;;;;;;;45.73;23.22;;;;;;;7.40;61.88;98314.70;2197925;79;21620;-71
2021/03/16 12:41:25;;;;;;;47.50;24.92;;;;;;;7.41;62.16;98315.53;2200860;80;21187;-72
2021/03/16 12:44:27;;;;;;;45.52;24.50;;;;;;;7.60;62.33;98305.75;2197771;80;21299;-71
2021/03/16 12:47:28;;;;;;;48.20;25.27;;;;;;;7.96;60.78;98314.16;2193290;80;21296;-71
2021/03/16 12:50:29;;;;;;;44.27;23.90;;;;;;;8.53;60.72;98291.19;2203028;80;21154;-71
2021/03/16 12:53:30;;;;;;;46.50;24.37;;;;;;;9.09;59.34;98310.00;2192749;80;21557;-71
2021/03/16 12:56:31;;;;;;;43.08;24.55;;;;;;;9.34;55.53;98313.22;2180636;80;21308;-71
2021/03/16 12:59:32;;;;;;;41.68;23.62;;;;;;;9.50;55.52;98311.75;2197162;80;21145;-71
2021/03/16 13:02:32;;;;;;;46.58;24.92;;;;;;;9.77;55.76;98305.64;2197676;80;21169;-71
2021/03/16 13:05:34;;;;;;;42.60;22.70;;;;;;;9.70;55.25;98309.14;2176584;80;21284;-71
2021/03/16 13:08:35;;;;;;;43.58;21.33;;;;;;;9.63;54.64;98313.94;2198660;80;21130;-71
2021/03/16 13:11:36;;;;;;;38.17;20.57;;;;;;;9.51;54.57;98318.65;2189782;80;21600;-71
2021/03/16 13:14:37;;;;;;;37.05;19.55;;;;;;;9.57;54.04;98320.03;2192047;80;21150;-71
2021/03/16 13:17:38;;;;;;;38.70;20.23;;;;;;;9.09;53.36;98310.00;2204757;80;21165;-71
2021/03/16 13:20:39;;;;;;;35.88;17.95;;;;;;;8.55;55.73;98306.33;2192619;80;21750;-71
2021/03/16 13:23:41;;;;;;;36.15;19.15;;;;;;;8.33;55.47;98331.56;2199466;80;21158;-71
2021/03/16 13:26:42;;;;;;;37.28;18.92;;;;;;;8.63;55.12;98326.77;2196218;79;21150;-71
2021/03/16 13:29:43;;;;;;;37.70;19.35;;;;;;;8.92;56.66;98334.59;2207950;80;21162;-71
2021/03/16 13:32:44;;;;;;;36.38;18.80;;;;;;;9.04;56.39;98342.99;2190357;80;21295;-72
2021/03/16 13:35:45;;;;;;;34.47;17.23;;;;;;;9.26;55.87;98337.72;2206648;80;21383;-71
2021/03/16 13:38:46;;;;;;;29.40;14.45;;;;;;;9.06;55.31;98341.11;2213240;80;21276;-71
2021/03/16 13:41:47;;;;;;;31.17;14.05;;;;;;;9.10;54.50;98341.77;2198219;80;21747;-71
2021/03/16 13:44:48;;;;;;;30.92;14.38;;;;;;;8.76;55.21;98347.77;2196547;80;21609;-71
2021/03/16 13:47:49;;;;;;;28.98;14.30;;;;;;;8.93;55.11;98348.05;2183047;80;21842;-71
2021/03/16 13:50:50;;;;;;;32.73;16.62;;;;;;;9.08;55.03;98360.63;2188161;80;21138;-71
2021/03/16 13:53:51;;;;;;;29.40;13.28;;;;;;;8.88;57.41;98360.55;2182911;80;21193;-71
2021/03/16 13:56:53;;;;;;;22.73;9.58;;;;;;;8.48;58.25;98367.27;2193705;80;21606;-72
2021/03/16 13:59:54;;;;;;;24.97;10.57;;;;;;;8.08;57.41;98393.57;2199005;80;21755;-71
2021/03/16 14:02:55;;;;;;;23.65;9.10;;;;;;;7.54;58.75;98385.70;2206503;80;21150;-72